createdAt,value
2019-05-21T00:01:36.706Z,15.60
2019-05-21T00:04:07.883Z,15.40
2019-05-21T00:06:39.536Z,15.40
2019-05-21T00:09:10.660Z,15.30
2019-05-21T00:11:41.964Z,15.30
2019-05-21T00:14:13.209Z,15.40
2019-05-21T00:16:44.618Z,15.50
2019-05-21T00:19:15.783Z,15.50
2019-05-21T00:21:47.102Z,15.40
2019-05-21T00:24:18.235Z,15.40
2019-05-21T00:26:49.492Z,15.40
2019-05-21T00:29:55.944Z,15.40
2019-05-21T00:33:02.670Z,15.40
2019-05-21T00:36:09.145Z,15.40
2019-05-21T00:39:15.876Z,15.30
2019-05-21T00:42:02.599Z,15.40
2019-05-21T00:44:43.981Z,15.40
2019-05-21T00:47:15.466Z,15.30
2019-05-21T00:49:46.802Z,15.20
2019-05-21T00:52:19.036Z,15.20
2019-05-21T00:54:50.101Z,15.20
2019-05-21T00:57:20.935Z,15.10
2019-05-21T00:59:52.051Z,15.20
2019-05-21T01:02:22.964Z,15.10
2019-05-21T01:05:00.722Z,15.00
2019-05-21T01:07:27.270Z,15.10
2019-05-21T01:09:58.554Z,15.10
2019-05-21T01:12:30.840Z,15.10
2019-05-21T01:15:02.043Z,15.10
2019-05-21T01:17:33.296Z,15.10
2019-05-21T01:20:04.768Z,15.10
2019-05-21T01:22:36.285Z,15.10
2019-05-21T01:25:07.617Z,15.00
2019-05-21T01:27:38.845Z,15.00
2019-05-21T01:30:10.245Z,15.00
2019-05-21T01:32:41.554Z,15.00
2019-05-21T01:35:17.029Z,15.00
2019-05-21T01:37:45.589Z,15.00
2019-05-21T01:40:16.399Z,15.00
2019-05-21T01:42:47.525Z,14.90
2019-05-21T01:45:18.992Z,14.80
2019-05-21T01:47:50.109Z,14.70
2019-05-21T01:50:21.341Z,14.60
2019-05-21T01:52:52.641Z,14.60
2019-05-21T01:55:23.808Z,14.60
2019-05-21T01:57:55.358Z,14.70
2019-05-21T02:00:26.774Z,14.70
2019-05-21T02:02:57.980Z,14.70
2019-05-21T02:05:32.902Z,14.80
2019-05-21T02:08:02.998Z,14.90
2019-05-21T02:10:34.727Z,14.80
2019-05-21T02:13:05.798Z,14.70
2019-05-21T02:15:36.996Z,14.70
2019-05-21T02:18:08.230Z,14.70
2019-05-21T02:20:40.533Z,14.70
2019-05-21T02:23:12.080Z,14.70
2019-05-21T02:25:43.493Z,14.70
2019-05-21T02:28:19.278Z,14.70
2019-05-21T02:30:50.590Z,14.70
2019-05-21T02:33:21.969Z,14.70
2019-05-21T02:35:54.815Z,14.70
2019-05-21T02:38:26.217Z,14.70
2019-05-21T02:40:57.302Z,14.70
2019-05-21T02:43:28.788Z,14.60
2019-05-21T02:46:00.775Z,14.60
2019-05-21T02:48:35.911Z,14.60
2019-05-21T02:51:07.084Z,14.70
2019-05-21T02:53:38.480Z,14.70
2019-05-21T02:56:09.720Z,14.60
2019-05-21T02:58:41.045Z,14.50
2019-05-21T03:01:43.040Z,14.50
2019-05-21T03:04:14.197Z,14.60
2019-05-21T03:06:45.475Z,14.50
2019-05-21T03:09:16.818Z,14.50
2019-05-21T03:11:47.682Z,14.40
2019-05-21T03:14:18.980Z,14.50
2019-05-21T03:16:50.493Z,14.60
2019-05-21T03:19:22.965Z,14.60
2019-05-21T03:21:54.128Z,14.50
2019-05-21T03:24:25.685Z,14.50
2019-05-21T03:26:56.842Z,14.40
2019-05-21T03:29:28.174Z,14.40
2019-05-21T03:31:59.324Z,14.30
2019-05-21T03:34:30.673Z,14.30
2019-05-21T03:37:01.959Z,14.30
2019-05-21T03:39:33.258Z,14.40
2019-05-21T03:42:04.169Z,14.50
2019-05-21T03:44:35.565Z,14.50
2019-05-21T03:47:06.712Z,14.50
2019-05-21T03:49:38.579Z,14.50
2019-05-21T03:52:09.951Z,14.40
2019-05-21T03:54:41.162Z,14.40
2019-05-21T03:57:12.335Z,14.40
2019-05-21T03:59:43.577Z,14.50
2019-05-21T04:02:15.428Z,14.40
2019-05-21T04:04:46.469Z,14.50
2019-05-21T04:07:17.793Z,14.50
2019-05-21T04:09:49.135Z,14.50
2019-05-21T04:12:21.819Z,14.50
2019-05-21T04:14:56.906Z,14.50
2019-05-21T04:17:44.271Z,14.50
2019-05-21T04:20:15.910Z,14.50
2019-05-21T04:22:53.468Z,14.30
2019-05-21T04:25:26.127Z,14.40
2019-05-21T04:27:57.256Z,14.40
2019-05-21T04:30:28.528Z,14.30
2019-05-21T04:32:59.770Z,14.40
2019-05-21T04:35:34.036Z,14.30
2019-05-21T04:38:05.142Z,14.30
2019-05-21T04:40:36.429Z,14.30
2019-05-21T04:43:07.526Z,14.30
2019-05-21T04:45:38.955Z,14.30
2019-05-21T04:48:10.236Z,14.30
2019-05-21T04:50:41.500Z,14.40
2019-05-21T04:53:12.692Z,14.40
2019-05-21T04:55:44.001Z,14.40
2019-05-21T04:58:15.794Z,14.30
2019-05-21T05:00:46.928Z,14.30
2019-05-21T05:03:17.730Z,14.40
2019-05-21T05:05:49.026Z,14.40
2019-05-21T05:08:20.266Z,14.50
2019-05-21T05:10:51.506Z,14.50
2019-05-21T05:13:22.697Z,14.50
2019-05-21T05:15:54.143Z,14.60
2019-05-21T05:18:25.347Z,14.60
2019-05-21T05:20:56.914Z,14.70
2019-05-21T05:23:28.363Z,14.70
2019-05-21T05:25:59.785Z,14.70
2019-05-21T05:28:41.680Z,14.90
2019-05-21T05:31:15.957Z,14.90
2019-05-21T05:33:47.307Z,15.10
2019-05-21T05:36:18.224Z,15.10
2019-05-21T05:38:49.605Z,15.20
2019-05-21T05:41:20.612Z,15.20
2019-05-21T05:43:51.984Z,15.30
2019-05-21T05:46:22.810Z,15.30
2019-05-21T05:49:02.676Z,15.40
2019-05-21T05:51:34.004Z,15.50
2019-05-21T05:54:07.708Z,15.50
2019-05-21T05:56:38.222Z,15.50
2019-05-21T05:59:13.923Z,15.50
2019-05-21T06:01:43.813Z,15.60
2019-05-21T06:04:15.970Z,15.70
2019-05-21T06:06:47.201Z,15.70
2019-05-21T06:09:18.498Z,15.80
2019-05-21T06:11:49.712Z,15.90
2019-05-21T06:14:20.817Z,16.00
2019-05-21T06:16:52.086Z,16.10
2019-05-21T06:19:23.358Z,16.20
2019-05-21T06:21:55.028Z,16.30
2019-05-21T06:24:26.283Z,16.30
2019-05-21T06:26:57.542Z,16.40
2019-05-21T06:29:28.869Z,16.40
2019-05-21T06:32:00.291Z,16.50
2019-05-21T06:34:31.467Z,16.50
2019-05-21T06:37:02.540Z,16.60
2019-05-21T06:39:33.631Z,16.70
2019-05-21T06:42:05.133Z,16.70
2019-05-21T06:44:36.341Z,16.70
2019-05-21T06:47:07.482Z,16.70
2019-05-21T06:49:38.663Z,16.80
2019-05-21T06:52:09.974Z,16.70
2019-05-21T06:54:41.490Z,16.80
2019-05-21T06:57:12.798Z,16.80
2019-05-21T06:59:44.152Z,16.80
2019-05-21T07:02:16.244Z,16.90
2019-05-21T07:04:47.620Z,16.80
2019-05-21T07:07:19.369Z,16.80
2019-05-21T07:09:50.985Z,17.00
2019-05-21T07:12:22.357Z,17.10
2019-05-21T07:14:53.798Z,17.30
2019-05-21T07:17:24.735Z,17.30
2019-05-21T07:19:56.080Z,17.40
2019-05-21T07:22:27.492Z,17.70
2019-05-21T07:24:59.165Z,17.80
2019-05-21T07:27:30.479Z,17.90
2019-05-21T07:30:01.902Z,18.00
2019-05-21T07:32:33.148Z,18.10
2019-05-21T07:35:05.031Z,17.90
2019-05-21T07:37:36.309Z,17.90
2019-05-21T07:40:08.296Z,17.90
2019-05-21T07:42:39.705Z,18.00
2019-05-21T07:45:11.396Z,18.10
2019-05-21T07:47:42.678Z,18.20
2019-05-21T07:50:14.660Z,18.30
2019-05-21T07:52:45.931Z,18.40
2019-05-21T07:55:17.189Z,18.40
2019-05-21T07:57:48.963Z,18.40
2019-05-21T08:00:20.788Z,18.60
2019-05-21T08:02:52.247Z,18.70
2019-05-21T08:05:25.240Z,18.80
2019-05-21T08:07:56.691Z,18.90
2019-05-21T08:10:28.366Z,18.90
2019-05-21T08:12:59.784Z,19.10
2019-05-21T08:15:31.350Z,19.30
2019-05-21T08:18:02.985Z,19.30
2019-05-21T08:20:34.311Z,19.20
2019-05-21T08:23:06.316Z,19.20
2019-05-21T08:25:37.870Z,19.30
2019-05-21T08:28:09.046Z,19.40
2019-05-21T08:30:40.193Z,19.50
2019-05-21T08:33:15.488Z,19.70
2019-05-21T08:35:48.168Z,19.70
2019-05-21T08:38:19.227Z,19.80
2019-05-21T08:40:50.329Z,19.90
2019-05-21T08:43:22.325Z,20.10
2019-05-21T08:45:53.904Z,19.90
2019-05-21T08:48:24.854Z,20.00
2019-05-21T08:50:57.273Z,19.90
2019-05-21T08:53:28.520Z,19.80
2019-05-21T08:55:59.684Z,20.00
2019-05-21T08:58:31.061Z,20.10
2019-05-21T09:01:02.763Z,19.80
2019-05-21T09:03:34.314Z,19.90
2019-05-21T09:06:05.998Z,19.90
2019-05-21T09:08:37.495Z,20.20
2019-05-21T09:11:08.792Z,20.30
2019-05-21T09:13:40.341Z,20.50
2019-05-21T09:16:11.820Z,20.40
2019-05-21T09:18:43.467Z,20.50
2019-05-21T09:21:15.256Z,20.60
2019-05-21T09:23:46.629Z,20.70
2019-05-21T09:26:18.136Z,20.90
2019-05-21T09:28:51.698Z,20.90
2019-05-21T09:31:23.667Z,20.70
2019-05-21T09:33:54.924Z,20.70
2019-05-21T09:36:26.297Z,20.70
2019-05-21T09:38:57.664Z,20.90
2019-05-21T09:41:28.905Z,21.10
2019-05-21T09:44:00.166Z,21.40
2019-05-21T09:46:31.895Z,21.40
2019-05-21T09:49:03.449Z,21.40
2019-05-21T09:51:34.655Z,21.40
2019-05-21T09:54:06.132Z,21.50
2019-05-21T09:56:37.678Z,21.50
2019-05-21T09:59:32.069Z,21.40
2019-05-21T10:02:09.842Z,21.40
2019-05-21T10:04:41.331Z,21.40
2019-05-21T10:07:12.806Z,21.70
2019-05-21T10:09:45.260Z,21.60
2019-05-21T10:12:17.027Z,21.40
2019-05-21T10:14:49.297Z,21.40
2019-05-21T10:17:20.183Z,21.60
2019-05-21T10:19:52.608Z,21.70
2019-05-21T10:22:23.398Z,21.70
2019-05-21T10:24:54.667Z,21.90
2019-05-21T10:27:25.953Z,22.10
2019-05-21T10:29:57.479Z,22.20
2019-05-21T10:32:28.742Z,21.70
2019-05-21T10:34:59.999Z,21.90
2019-05-21T10:37:31.953Z,22.00
2019-05-21T10:40:03.602Z,22.20
2019-05-21T10:42:34.785Z,22.20
2019-05-21T10:45:06.241Z,22.30
2019-05-21T10:47:37.563Z,22.40
2019-05-21T10:50:09.260Z,22.40
2019-05-21T10:52:40.454Z,22.30
2019-05-21T10:55:16.124Z,22.20
2019-05-21T10:57:47.916Z,22.40
2019-05-21T11:00:23.016Z,22.50
2019-05-21T11:03:01.053Z,22.40
2019-05-21T11:05:37.451Z,22.50
2019-05-21T11:08:23.389Z,22.70
2019-05-21T11:10:43.397Z,22.70
2019-05-21T11:13:14.739Z,22.70
2019-05-21T11:15:46.011Z,22.80
2019-05-21T11:18:17.246Z,22.60
2019-05-21T11:20:48.624Z,22.70
2019-05-21T11:23:19.799Z,22.80
2019-05-21T11:25:51.260Z,22.70
2019-05-21T11:28:24.252Z,22.80
2019-05-21T11:30:55.748Z,22.70
2019-05-21T11:33:27.140Z,22.80
2019-05-21T11:35:58.790Z,22.60
2019-05-21T11:38:39.376Z,22.80
2019-05-21T11:41:03.526Z,23.00
2019-05-21T11:43:34.772Z,22.80
2019-05-21T11:46:06.267Z,22.80
2019-05-21T11:48:37.341Z,22.70
2019-05-21T11:51:12.098Z,22.70
2019-05-21T11:53:42.859Z,22.80
2019-05-21T11:56:14.257Z,22.90
2019-05-21T11:58:45.326Z,22.70
2019-05-21T12:01:17.046Z,22.90
2019-05-21T12:03:48.494Z,22.80
2019-05-21T12:06:19.829Z,22.80
2019-05-21T12:08:56.768Z,23.00
2019-05-21T12:11:24.609Z,23.20
2019-05-21T12:13:55.897Z,23.00
2019-05-21T12:16:27.221Z,22.90
2019-05-21T12:18:58.444Z,22.80
2019-05-21T12:21:29.813Z,22.60
2019-05-21T12:24:01.048Z,22.70
2019-05-21T12:26:32.612Z,22.40
2019-05-21T12:29:03.806Z,22.70
2019-05-21T12:31:37.365Z,22.80
2019-05-21T12:34:08.510Z,23.00
2019-05-21T12:36:39.941Z,23.00
2019-05-21T12:39:14.559Z,22.80
2019-05-21T12:41:44.228Z,22.70
2019-05-21T12:44:17.087Z,22.90
2019-05-21T12:46:48.839Z,23.20
2019-05-21T12:49:20.098Z,23.50
2019-05-21T12:51:51.405Z,23.40
2019-05-21T12:54:22.788Z,23.40
2019-05-21T12:56:54.256Z,23.50
2019-05-21T12:59:25.532Z,23.30
2019-05-21T13:01:57.292Z,23.60
2019-05-21T13:04:28.548Z,23.80
2019-05-21T13:06:59.825Z,23.90
2019-05-21T13:09:32.624Z,24.10
2019-05-21T13:12:04.209Z,24.40
2019-05-21T13:14:35.462Z,24.60
2019-05-21T13:17:06.962Z,24.80
2019-05-21T13:19:38.217Z,24.50
2019-05-21T13:22:09.528Z,23.90
2019-05-21T13:24:40.805Z,24.00
2019-05-21T13:27:12.192Z,24.30
2019-05-21T13:29:43.519Z,24.20
2019-05-21T13:32:15.016Z,24.60
2019-05-21T13:34:47.016Z,25.00
2019-05-21T13:37:17.946Z,25.70
2019-05-21T13:39:50.557Z,25.80
2019-05-21T13:42:22.348Z,26.00
2019-05-21T13:44:53.719Z,26.40
2019-05-21T13:47:24.878Z,26.30
2019-05-21T13:49:56.112Z,26.40
2019-05-21T13:52:27.455Z,26.20
2019-05-21T13:54:58.679Z,26.30
2019-05-21T13:57:30.381Z,26.90
2019-05-21T14:00:02.498Z,26.50
2019-05-21T14:02:35.751Z,25.60
2019-05-21T14:05:07.253Z,25.80
2019-05-21T14:07:38.827Z,26.00
2019-05-21T14:10:15.787Z,26.40
2019-05-21T14:12:43.289Z,26.70
2019-05-21T14:15:14.839Z,26.80
2019-05-21T14:17:45.995Z,27.00
2019-05-21T14:20:17.732Z,26.90
2019-05-21T14:22:49.090Z,26.00
2019-05-21T14:25:20.804Z,25.50
2019-05-21T14:27:52.417Z,25.70
2019-05-21T14:30:23.760Z,25.60
2019-05-21T14:32:54.722Z,25.90
2019-05-21T14:35:25.937Z,26.10
2019-05-21T14:38:01.393Z,26.70
2019-05-21T14:40:33.901Z,26.70
2019-05-21T14:43:05.140Z,27.30
2019-05-21T14:45:36.492Z,27.00
2019-05-21T14:48:07.949Z,26.50
2019-05-21T14:50:39.210Z,27.00
2019-05-21T14:53:10.895Z,27.20
2019-05-21T14:55:42.431Z,27.30
2019-05-21T14:58:13.864Z,27.60
2019-05-21T15:00:45.305Z,26.40
2019-05-21T15:03:25.117Z,25.30
2019-05-21T15:05:50.383Z,24.50
2019-05-21T15:08:21.813Z,23.90
2019-05-21T15:10:55.023Z,23.90
2019-05-21T15:13:26.353Z,23.50
2019-05-21T15:15:58.526Z,23.40
2019-05-21T15:18:29.996Z,23.20
2019-05-21T15:21:24.608Z,23.10
2019-05-21T15:23:56.157Z,23.30
2019-05-21T15:26:27.565Z,23.20
2019-05-21T15:28:58.919Z,23.00
2019-05-21T15:31:31.462Z,22.60
2019-05-21T15:34:03.208Z,22.50
2019-05-21T15:36:34.453Z,22.50
2019-05-21T15:39:07.509Z,22.40
2019-05-21T15:41:39.165Z,22.30
2019-05-21T15:44:10.492Z,22.40
2019-05-21T15:46:48.150Z,22.20
2019-05-21T15:49:15.233Z,22.20
2019-05-21T15:51:46.556Z,22.30
2019-05-21T15:54:18.013Z,22.00
2019-05-21T15:56:49.634Z,21.90
2019-05-21T15:59:20.704Z,22.10
2019-05-21T16:01:51.968Z,22.00
2019-05-21T16:04:23.192Z,21.90
2019-05-21T16:06:54.612Z,22.10
2019-05-21T16:09:25.693Z,21.60
2019-05-21T16:11:57.332Z,21.60
2019-05-21T16:14:28.934Z,21.80
2019-05-21T16:17:00.353Z,21.60
2019-05-21T16:19:33.238Z,21.60
2019-05-21T16:22:04.780Z,21.60
2019-05-21T16:24:36.106Z,21.60
2019-05-21T16:27:07.345Z,21.50
2019-05-21T16:29:39.188Z,21.50
2019-05-21T16:32:10.659Z,21.30
2019-05-21T16:34:41.999Z,21.30
2019-05-21T16:37:13.510Z,20.90
2019-05-21T16:39:44.883Z,21.00
2019-05-21T16:42:16.373Z,20.90
2019-05-21T16:44:48.181Z,20.80
2019-05-21T16:47:19.578Z,21.10
2019-05-21T16:49:51.322Z,20.90
2019-05-21T16:52:22.652Z,21.10
2019-05-21T16:54:54.148Z,21.20
2019-05-21T16:57:26.275Z,21.20
2019-05-21T16:59:58.816Z,21.20
2019-05-21T17:02:30.166Z,21.00
2019-05-21T17:05:01.662Z,21.20
2019-05-21T17:07:34.164Z,21.20
2019-05-21T17:10:05.770Z,20.90
2019-05-21T17:12:37.176Z,20.90
2019-05-21T17:15:09.178Z,20.50
2019-05-21T17:17:40.621Z,20.20
2019-05-21T17:20:11.871Z,20.30
2019-05-21T17:22:43.542Z,20.40
2019-05-21T17:25:15.160Z,20.50
2019-05-21T17:27:46.521Z,20.40
2019-05-21T17:30:18.665Z,20.20
2019-05-21T17:32:49.963Z,20.10
2019-05-21T17:35:21.209Z,19.70
2019-05-21T17:37:52.796Z,19.80
2019-05-21T17:40:27.495Z,19.90
2019-05-21T17:42:58.753Z,19.80
2019-05-21T17:45:30.050Z,20.00
2019-05-21T17:48:01.652Z,19.90
2019-05-21T17:50:33.426Z,19.60
2019-05-21T17:53:04.839Z,19.80
2019-05-21T17:55:36.172Z,19.80
2019-05-21T17:58:07.539Z,19.80
2019-05-21T18:00:58.701Z,19.90
2019-05-21T18:03:30.104Z,19.80
2019-05-21T18:06:02.565Z,19.90
2019-05-21T18:08:34.190Z,19.70
2019-05-21T18:11:06.329Z,19.60
2019-05-21T18:13:37.955Z,19.50
2019-05-21T18:16:09.619Z,19.50
2019-05-21T18:18:41.156Z,19.60
2019-05-21T18:21:12.614Z,19.50
2019-05-21T18:23:44.034Z,19.10
2019-05-21T18:26:15.484Z,19.10
2019-05-21T18:28:47.194Z,19.10
2019-05-21T18:31:19.044Z,19.20
2019-05-21T18:33:50.985Z,19.10
2019-05-21T18:36:22.279Z,19.10
2019-05-21T18:38:54.187Z,19.10
2019-05-21T18:41:25.460Z,19.00
2019-05-21T18:43:58.549Z,19.00
2019-05-21T18:46:29.960Z,19.00
2019-05-21T18:49:01.208Z,19.00
2019-05-21T18:51:33.087Z,19.10
2019-05-21T18:54:04.365Z,18.80
2019-05-21T18:56:35.798Z,18.90
2019-05-21T18:59:07.530Z,18.80
2019-05-21T19:01:39.045Z,18.70
2019-05-21T19:04:11.171Z,18.80
2019-05-21T19:06:42.724Z,18.80
2019-05-21T19:09:14.305Z,18.60
2019-05-21T19:11:46.796Z,18.60
2019-05-21T19:14:18.351Z,18.60
2019-05-21T19:16:49.652Z,18.60
2019-05-21T19:19:21.044Z,18.60
2019-05-21T19:21:52.302Z,18.60
2019-05-21T19:24:23.352Z,18.60
2019-05-21T19:26:55.603Z,18.70
2019-05-21T19:29:26.634Z,18.60
2019-05-21T19:31:57.891Z,18.70
2019-05-21T19:34:30.439Z,18.60
2019-05-21T19:37:01.890Z,18.60
2019-05-21T19:39:33.876Z,18.60
2019-05-21T19:42:05.651Z,18.60
2019-05-21T19:44:37.146Z,18.60
2019-05-21T19:47:08.342Z,18.60
2019-05-21T19:49:40.341Z,18.60
2019-05-21T19:52:11.415Z,18.40
2019-05-21T19:54:42.775Z,18.40
2019-05-21T19:57:14.427Z,18.50
2019-05-21T19:59:45.728Z,18.60
2019-05-21T20:02:17.131Z,18.60
2019-05-21T20:04:49.695Z,18.60
2019-05-21T20:07:21.712Z,18.60
2019-05-21T20:09:54.070Z,18.60
2019-05-21T20:12:26.456Z,18.50
2019-05-21T20:14:58.662Z,18.50
2019-05-21T20:17:30.558Z,18.50
2019-05-21T20:20:01.697Z,18.60
2019-05-21T20:22:34.973Z,18.60
2019-05-21T20:25:07.563Z,18.50
2019-05-21T20:27:39.189Z,18.30
2019-05-21T20:30:13.775Z,18.30
2019-05-21T20:32:46.791Z,18.40
2019-05-21T20:35:18.692Z,18.30
2019-05-21T20:37:51.243Z,18.30
2019-05-21T20:40:23.418Z,18.30
2019-05-21T20:42:55.468Z,18.10
2019-05-21T20:45:27.293Z,18.20
2019-05-21T20:47:59.762Z,18.30
2019-05-21T20:50:31.413Z,18.20
2019-05-21T20:53:03.040Z,18.10
2019-05-21T20:55:34.175Z,18.10
2019-05-21T20:58:08.399Z,18.20
2019-05-21T21:00:43.516Z,18.10
2019-05-21T21:03:15.421Z,18.10
2019-05-21T21:05:46.879Z,18.10
2019-05-21T21:08:19.362Z,18.00
2019-05-21T21:10:50.713Z,18.00
2019-05-21T21:13:21.815Z,18.00
2019-05-21T21:15:53.466Z,18.00
2019-05-21T21:18:25.204Z,17.90
2019-05-21T21:20:57.015Z,18.00
2019-05-21T21:23:30.086Z,18.00
2019-05-21T21:26:01.909Z,18.00
2019-05-21T21:28:33.425Z,18.10
2019-05-21T21:31:05.394Z,18.00
2019-05-21T21:33:36.906Z,18.10
2019-05-21T21:36:08.161Z,18.10
2019-05-21T21:38:40.599Z,18.00
2019-05-21T21:41:12.061Z,18.00
2019-05-21T21:43:43.298Z,18.00
2019-05-21T21:46:14.844Z,18.00
2019-05-21T21:48:46.258Z,17.90
2019-05-21T21:51:17.576Z,17.90
2019-05-21T21:53:49.117Z,17.90
2019-05-21T21:56:20.458Z,18.00
2019-05-21T21:58:51.659Z,18.10
2019-05-21T22:01:46.137Z,18.00
2019-05-21T22:04:21.282Z,17.90
2019-05-21T22:06:52.945Z,17.80
2019-05-21T22:09:32.364Z,17.70
2019-05-21T22:12:05.508Z,17.80
2019-05-21T22:14:49.710Z,17.80
2019-05-21T22:17:13.567Z,17.80
2019-05-21T22:19:45.279Z,17.80
2019-05-21T22:22:16.689Z,17.80
2019-05-21T22:24:48.329Z,17.70
2019-05-21T22:27:19.483Z,17.60
2019-05-21T22:29:50.824Z,17.70
2019-05-21T22:32:22.476Z,17.70
2019-05-21T22:34:53.685Z,17.80
2019-05-21T22:37:26.577Z,17.80
2019-05-21T22:39:58.312Z,17.90
2019-05-21T22:42:30.440Z,18.00
2019-05-21T22:45:08.383Z,18.10
2019-05-21T22:47:38.140Z,18.00
2019-05-21T22:50:09.807Z,17.90
2019-05-21T22:52:41.926Z,17.80
2019-05-21T22:55:13.425Z,17.70
2019-05-21T22:57:44.709Z,17.80
2019-05-21T23:00:16.470Z,17.80
2019-05-21T23:02:48.373Z,17.80
2019-05-21T23:05:22.882Z,17.80
2019-05-21T23:07:52.322Z,17.80
2019-05-21T23:10:24.094Z,17.80
2019-05-21T23:12:55.463Z,17.80
2019-05-21T23:15:26.569Z,17.80
2019-05-21T23:18:15.692Z,17.90
2019-05-21T23:21:08.117Z,17.80
2019-05-21T23:23:41.050Z,17.70
2019-05-21T23:26:12.773Z,17.80
2019-05-21T23:28:44.863Z,17.90
2019-05-21T23:31:16.476Z,17.80
2019-05-21T23:33:50.084Z,17.80
2019-05-21T23:36:21.071Z,17.80
2019-05-21T23:38:53.163Z,17.70
2019-05-21T23:41:24.964Z,17.70
2019-05-21T23:43:56.287Z,17.60
2019-05-21T23:46:31.091Z,17.50
2019-05-21T23:49:02.525Z,17.60
2019-05-21T23:51:33.747Z,17.50
2019-05-21T23:54:05.508Z,17.50
2019-05-21T23:56:37.023Z,17.40
2019-05-21T23:59:09.187Z,17.40
